sensor_id;sensor_type;location;lat;lon;timestamp;temperature;humidity
19031;DHT22;9648;51.130;13.978;2022-11-02T00:01:38;6.10;99.90
19031;DHT22;9648;51.130;13.978;2022-11-02T00:04:05;6.10;99.90
19031;DHT22;9648;51.130;13.978;2022-11-02T00:06:32;6.10;99.90
19031;DHT22;9648;51.130;13.978;2022-11-02T00:08:59;6.10;99.90
19031;DHT22;9648;51.130;13.978;2022-11-02T00:11:26;6.10;99.90
19031;DHT22;9648;51.130;13.978;2022-11-02T00:13:53;6.10;99.90
19031;DHT22;9648;51.130;13.978;2022-11-02T00:16:21;6.10;99.90
19031;DHT22;9648;51.130;13.978;2022-11-02T00:18:51;6.00;99.90
19031;DHT22;9648;51.130;13.978;2022-11-02T00:21:20;6.00;99.90
19031;DHT22;9648;51.130;13.978;2022-11-02T00:23:48;6.00;99.90
19031;DHT22;9648;51.130;13.978;2022-11-02T00:26:15;5.90;99.90
19031;DHT22;9648;51.130;13.978;2022-11-02T00:28:43;6.00;99.90
19031;DHT22;9648;51.130;13.978;2022-11-02T00:31:10;5.90;99.90
19031;DHT22;9648;51.130;13.978;2022-11-02T00:33:38;5.90;99.90
19031;DHT22;9648;51.130;13.978;2022-11-02T00:36:05;5.90;99.90
19031;DHT22;9648;51.130;13.978;2022-11-02T00:38:32;5.90;99.90
19031;DHT22;9648;51.130;13.978;2022-11-02T00:40:58;5.80;99.90
19031;DHT22;9648;51.130;13.978;2022-11-02T00:43:25;5.80;99.90
19031;DHT22;9648;51.130;13.978;2022-11-02T00:45:52;5.80;99.90
19031;DHT22;9648;51.130;13.978;2022-11-02T00:48:19;5.80;99.90
19031;DHT22;9648;51.130;13.978;2022-11-02T00:50:47;5.70;99.90
19031;DHT22;9648;51.130;13.978;2022-11-02T00:53:14;5.70;99.90
19031;DHT22;9648;51.130;13.978;2022-11-02T00:55:40;5.70;99.90
19031;DHT22;9648;51.130;13.978;2022-11-02T00:58:07;5.70;99.90
19031;DHT22;9648;51.130;13.978;2022-11-02T01:00:34;5.70;99.90
19031;DHT22;9648;51.130;13.978;2022-11-02T01:03:01;5.70;99.90
19031;DHT22;9648;51.130;13.978;2022-11-02T01:05:28;5.70;99.90
19031;DHT22;9648;51.130;13.978;2022-11-02T01:07:56;5.70;99.90
19031;DHT22;9648;51.130;13.978;2022-11-02T01:10:23;5.70;99.90
19031;DHT22;9648;51.130;13.978;2022-11-02T01:12:51;5.70;99.90
19031;DHT22;9648;51.130;13.978;2022-11-02T01:15:18;5.60;99.90
19031;DHT22;9648;51.130;13.978;2022-11-02T01:17:45;5.70;99.90
19031;DHT22;9648;51.130;13.978;2022-11-02T01:20:12;5.70;99.90
19031;DHT22;9648;51.130;13.978;2022-11-02T01:22:39;5.70;99.90
19031;DHT22;9648;51.130;13.978;2022-11-02T01:25:07;5.70;99.90
19031;DHT22;9648;51.130;13.978;2022-11-02T01:27:34;5.60;99.90
19031;DHT22;9648;51.130;13.978;2022-11-02T01:30:02;5.70;99.90
19031;DHT22;9648;51.130;13.978;2022-11-02T01:32:29;5.60;99.90
19031;DHT22;9648;51.130;13.978;2022-11-02T01:34:56;5.60;99.90
19031;DHT22;9648;51.130;13.978;2022-11-02T01:37:22;5.60;99.90
19031;DHT22;9648;51.130;13.978;2022-11-02T01:39:49;5.60;99.90
19031;DHT22;9648;51.130;13.978;2022-11-02T01:42:18;5.60;99.90
19031;DHT22;9648;51.130;13.978;2022-11-02T01:44:45;5.60;99.90
19031;DHT22;9648;51.130;13.978;2022-11-02T01:47:16;5.60;99.90
19031;DHT22;9648;51.130;13.978;2022-11-02T01:49:46;5.60;99.90
19031;DHT22;9648;51.130;13.978;2022-11-02T01:52:17;5.50;99.90
19031;DHT22;9648;51.130;13.978;2022-11-02T01:54:49;5.50;99.90
19031;DHT22;9648;51.130;13.978;2022-11-02T01:57:20;5.50;99.90
19031;DHT22;9648;51.130;13.978;2022-11-02T01:59:51;5.50;99.90
19031;DHT22;9648;51.130;13.978;2022-11-02T02:02:22;5.50;99.90
19031;DHT22;9648;51.130;13.978;2022-11-02T02:04:52;5.40;99.90
19031;DHT22;9648;51.130;13.978;2022-11-02T02:07:21;5.40;99.90
19031;DHT22;9648;51.130;13.978;2022-11-02T02:09:52;5.40;99.90
19031;DHT22;9648;51.130;13.978;2022-11-02T02:12:21;5.40;99.90
19031;DHT22;9648;51.130;13.978;2022-11-02T02:14:49;5.40;99.90
19031;DHT22;9648;51.130;13.978;2022-11-02T02:17:27;5.30;99.90
19031;DHT22;9648;51.130;13.978;2022-11-02T02:20:01;5.30;99.90
19031;DHT22;9648;51.130;13.978;2022-11-02T02:22:58;5.30;99.90
19031;DHT22;9648;51.130;13.978;2022-11-02T02:25:53;5.20;99.90
19031;DHT22;9648;51.130;13.978;2022-11-02T02:28:31;5.20;99.90
19031;DHT22;9648;51.130;13.978;2022-11-02T02:31:09;5.20;99.90
19031;DHT22;9648;51.130;13.978;2022-11-02T02:33:42;5.10;99.90
19031;DHT22;9648;51.130;13.978;2022-11-02T02:36:17;5.10;99.90
19031;DHT22;9648;51.130;13.978;2022-11-02T02:38:48;5.10;99.90
19031;DHT22;9648;51.130;13.978;2022-11-02T02:41:28;5.10;99.90
19031;DHT22;9648;51.130;13.978;2022-11-02T02:43:59;5.00;99.90
19031;DHT22;9648;51.130;13.978;2022-11-02T02:46:31;5.10;99.90
19031;DHT22;9648;51.130;13.978;2022-11-02T02:49:00;5.00;99.90
19031;DHT22;9648;51.130;13.978;2022-11-02T02:51:29;5.00;99.90
19031;DHT22;9648;51.130;13.978;2022-11-02T02:53:58;4.90;99.90
19031;DHT22;9648;51.130;13.978;2022-11-02T02:56:29;4.90;99.90
19031;DHT22;9648;51.130;13.978;2022-11-02T02:59:01;4.80;99.90
19031;DHT22;9648;51.130;13.978;2022-11-02T03:01:28;4.80;99.90
19031;DHT22;9648;51.130;13.978;2022-11-02T03:03:56;4.80;99.90
19031;DHT22;9648;51.130;13.978;2022-11-02T03:06:26;4.80;99.90
19031;DHT22;9648;51.130;13.978;2022-11-02T03:09:02;4.70;99.90
19031;DHT22;9648;51.130;13.978;2022-11-02T03:11:31;4.70;99.90
19031;DHT22;9648;51.130;13.978;2022-11-02T03:14:05;4.70;99.90
19031;DHT22;9648;51.130;13.978;2022-11-02T03:16:43;4.70;99.90
19031;DHT22;9648;51.130;13.978;2022-11-02T03:19:18;4.80;99.90
19031;DHT22;9648;51.130;13.978;2022-11-02T03:21:51;4.80;99.90
19031;DHT22;9648;51.130;13.978;2022-11-02T03:24:26;4.90;99.90
19031;DHT22;9648;51.130;13.978;2022-11-02T03:27:03;4.90;99.90
19031;DHT22;9648;51.130;13.978;2022-11-02T03:29:39;4.90;99.90
19031;DHT22;9648;51.130;13.978;2022-11-02T03:32:09;4.90;99.90
19031;DHT22;9648;51.130;13.978;2022-11-02T03:34:41;4.90;99.90
19031;DHT22;9648;51.130;13.978;2022-11-02T03:37:12;5.00;99.90
19031;DHT22;9648;51.130;13.978;2022-11-02T03:39:46;5.00;99.90
19031;DHT22;9648;51.130;13.978;2022-11-02T03:42:16;5.00;99.90
19031;DHT22;9648;51.130;13.978;2022-11-02T03:44:47;5.00;99.90
19031;DHT22;9648;51.130;13.978;2022-11-02T03:47:17;5.00;99.90
19031;DHT22;9648;51.130;13.978;2022-11-02T03:49:45;5.00;99.90
19031;DHT22;9648;51.130;13.978;2022-11-02T03:52:16;5.00;99.90
19031;DHT22;9648;51.130;13.978;2022-11-02T03:54:50;5.00;99.90
19031;DHT22;9648;51.130;13.978;2022-11-02T03:57:24;5.00;99.90
19031;DHT22;9648;51.130;13.978;2022-11-02T04:00:05;5.00;99.90
19031;DHT22;9648;51.130;13.978;2022-11-02T04:02:34;5.00;99.90
19031;DHT22;9648;51.130;13.978;2022-11-02T04:05:02;4.90;99.90
19031;DHT22;9648;51.130;13.978;2022-11-02T04:07:32;4.90;99.90
19031;DHT22;9648;51.130;13.978;2022-11-02T04:10:19;4.90;99.90
19031;DHT22;9648;51.130;13.978;2022-11-02T04:12:46;4.90;99.90
19031;DHT22;9648;51.130;13.978;2022-11-02T04:15:31;4.90;99.90
19031;DHT22;9648;51.130;13.978;2022-11-02T04:17:58;4.80;99.90
19031;DHT22;9648;51.130;13.978;2022-11-02T04:20:42;4.80;99.90
19031;DHT22;9648;51.130;13.978;2022-11-02T04:23:09;4.80;99.90
19031;DHT22;9648;51.130;13.978;2022-11-02T04:25:54;4.80;99.90
19031;DHT22;9648;51.130;13.978;2022-11-02T04:28:21;4.90;99.90
19031;DHT22;9648;51.130;13.978;2022-11-02T04:30:49;4.90;99.90
19031;DHT22;9648;51.130;13.978;2022-11-02T04:33:15;4.90;99.90
19031;DHT22;9648;51.130;13.978;2022-11-02T04:36:00;4.90;99.90
19031;DHT22;9648;51.130;13.978;2022-11-02T04:38:28;4.90;99.90
19031;DHT22;9648;51.130;13.978;2022-11-02T04:41:07;4.90;99.90
19031;DHT22;9648;51.130;13.978;2022-11-02T04:43:52;4.90;99.90
19031;DHT22;9648;51.130;13.978;2022-11-02T04:46:21;4.80;99.90
19031;DHT22;9648;51.130;13.978;2022-11-02T04:48:49;4.80;99.90
19031;DHT22;9648;51.130;13.978;2022-11-02T04:51:16;4.80;99.90
19031;DHT22;9648;51.130;13.978;2022-11-02T04:53:45;4.80;99.90
19031;DHT22;9648;51.130;13.978;2022-11-02T04:56:11;4.70;99.90
19031;DHT22;9648;51.130;13.978;2022-11-02T04:58:38;4.70;99.90
19031;DHT22;9648;51.130;13.978;2022-11-02T05:01:05;4.70;99.90
19031;DHT22;9648;51.130;13.978;2022-11-02T05:03:34;4.70;99.90
19031;DHT22;9648;51.130;13.978;2022-11-02T05:06:01;4.70;99.90
19031;DHT22;9648;51.130;13.978;2022-11-02T05:08:28;4.70;99.90
19031;DHT22;9648;51.130;13.978;2022-11-02T05:10:55;4.70;99.90
19031;DHT22;9648;51.130;13.978;2022-11-02T05:13:22;4.70;99.90
19031;DHT22;9648;51.130;13.978;2022-11-02T05:15:49;4.70;99.90
19031;DHT22;9648;51.130;13.978;2022-11-02T05:18:16;4.70;99.90
19031;DHT22;9648;51.130;13.978;2022-11-02T05:20:48;4.70;99.90
19031;DHT22;9648;51.130;13.978;2022-11-02T05:23:16;4.70;99.90
19031;DHT22;9648;51.130;13.978;2022-11-02T05:25:51;4.70;99.90
19031;DHT22;9648;51.130;13.978;2022-11-02T05:28:18;4.70;99.90
19031;DHT22;9648;51.130;13.978;2022-11-02T05:30:44;4.70;99.90
19031;DHT22;9648;51.130;13.978;2022-11-02T05:33:11;4.60;99.90
19031;DHT22;9648;51.130;13.978;2022-11-02T05:35:38;4.60;99.90
19031;DHT22;9648;51.130;13.978;2022-11-02T05:38:06;4.60;99.90
19031;DHT22;9648;51.130;13.978;2022-11-02T05:40:33;4.60;99.90
19031;DHT22;9648;51.130;13.978;2022-11-02T05:43:03;4.60;99.90
19031;DHT22;9648;51.130;13.978;2022-11-02T05:45:30;4.60;99.90
19031;DHT22;9648;51.130;13.978;2022-11-02T05:47:59;4.60;99.90
19031;DHT22;9648;51.130;13.978;2022-11-02T05:50:26;4.60;99.90
19031;DHT22;9648;51.130;13.978;2022-11-02T05:52:53;4.60;99.90
19031;DHT22;9648;51.130;13.978;2022-11-02T05:55:22;4.60;99.90
19031;DHT22;9648;51.130;13.978;2022-11-02T05:57:50;4.60;99.90
19031;DHT22;9648;51.130;13.978;2022-11-02T06:00:18;4.60;99.90
19031;DHT22;9648;51.130;13.978;2022-11-02T06:02:45;4.60;99.90
19031;DHT22;9648;51.130;13.978;2022-11-02T06:05:11;4.60;99.90
19031;DHT22;9648;51.130;13.978;2022-11-02T06:07:38;4.60;99.90
19031;DHT22;9648;51.130;13.978;2022-11-02T06:10:06;4.60;99.90
19031;DHT22;9648;51.130;13.978;2022-11-02T06:12:34;4.60;99.90
19031;DHT22;9648;51.130;13.978;2022-11-02T06:15:01;4.50;99.90
19031;DHT22;9648;51.130;13.978;2022-11-02T06:17:28;4.50;99.90
19031;DHT22;9648;51.130;13.978;2022-11-02T06:20:01;4.50;99.90
19031;DHT22;9648;51.130;13.978;2022-11-02T06:22:28;4.60;99.90
19031;DHT22;9648;51.130;13.978;2022-11-02T06:24:55;4.60;99.90
19031;DHT22;9648;51.130;13.978;2022-11-02T06:27:22;4.50;99.90
19031;DHT22;9648;51.130;13.978;2022-11-02T06:29:50;4.50;99.90
19031;DHT22;9648;51.130;13.978;2022-11-02T06:32:17;4.50;99.90
19031;DHT22;9648;51.130;13.978;2022-11-02T06:34:43;4.50;99.90
19031;DHT22;9648;51.130;13.978;2022-11-02T06:37:10;4.60;99.90
19031;DHT22;9648;51.130;13.978;2022-11-02T06:39:37;4.60;99.90
19031;DHT22;9648;51.130;13.978;2022-11-02T06:42:04;4.70;99.90
19031;DHT22;9648;51.130;13.978;2022-11-02T06:44:31;4.80;99.90
19031;DHT22;9648;51.130;13.978;2022-11-02T06:46:59;4.90;99.90
19031;DHT22;9648;51.130;13.978;2022-11-02T06:49:25;5.00;99.90
19031;DHT22;9648;51.130;13.978;2022-11-02T06:51:52;5.10;99.90
19031;DHT22;9648;51.130;13.978;2022-11-02T06:54:19;5.20;99.90
19031;DHT22;9648;51.130;13.978;2022-11-02T06:56:46;5.40;99.90
19031;DHT22;9648;51.130;13.978;2022-11-02T06:59:12;5.50;99.90
19031;DHT22;9648;51.130;13.978;2022-11-02T07:01:39;5.70;99.90
19031;DHT22;9648;51.130;13.978;2022-11-02T07:04:08;5.80;99.90
19031;DHT22;9648;51.130;13.978;2022-11-02T07:06:34;5.90;99.90
19031;DHT22;9648;51.130;13.978;2022-11-02T07:09:01;6.10;99.90
19031;DHT22;9648;51.130;13.978;2022-11-02T07:11:28;6.20;99.90
19031;DHT22;9648;51.130;13.978;2022-11-02T07:13:55;6.30;99.90
19031;DHT22;9648;51.130;13.978;2022-11-02T07:16:21;6.40;99.90
19031;DHT22;9648;51.130;13.978;2022-11-02T07:18:49;6.50;99.90
19031;DHT22;9648;51.130;13.978;2022-11-02T07:21:17;6.50;99.90
19031;DHT22;9648;51.130;13.978;2022-11-02T07:23:44;6.60;99.90
19031;DHT22;9648;51.130;13.978;2022-11-02T07:26:11;6.80;99.90
19031;DHT22;9648;51.130;13.978;2022-11-02T07:28:37;6.90;99.90
19031;DHT22;9648;51.130;13.978;2022-11-02T07:31:04;7.00;99.90
19031;DHT22;9648;51.130;13.978;2022-11-02T07:33:31;7.00;99.90
19031;DHT22;9648;51.130;13.978;2022-11-02T07:35:58;7.20;99.90
19031;DHT22;9648;51.130;13.978;2022-11-02T07:38:29;7.20;99.90
19031;DHT22;9648;51.130;13.978;2022-11-02T07:40:55;7.30;99.90
19031;DHT22;9648;51.130;13.978;2022-11-02T07:43:22;7.30;99.90
19031;DHT22;9648;51.130;13.978;2022-11-02T07:45:49;7.40;99.90
19031;DHT22;9648;51.130;13.978;2022-11-02T07:48:16;7.50;99.90
19031;DHT22;9648;51.130;13.978;2022-11-02T07:50:42;7.60;99.90
19031;DHT22;9648;51.130;13.978;2022-11-02T07:53:09;7.70;99.90
19031;DHT22;9648;51.130;13.978;2022-11-02T07:55:38;7.80;99.90
19031;DHT22;9648;51.130;13.978;2022-11-02T07:58:07;7.90;99.90
19031;DHT22;9648;51.130;13.978;2022-11-02T08:00:37;8.00;99.90
19031;DHT22;9648;51.130;13.978;2022-11-02T08:03:06;8.10;99.90
19031;DHT22;9648;51.130;13.978;2022-11-02T08:05:36;8.20;99.90
19031;DHT22;9648;51.130;13.978;2022-11-02T08:08:05;8.20;99.90
19031;DHT22;9648;51.130;13.978;2022-11-02T08:10:33;8.30;99.90
19031;DHT22;9648;51.130;13.978;2022-11-02T08:13:02;8.40;99.90
19031;DHT22;9648;51.130;13.978;2022-11-02T08:15:29;8.50;99.90
19031;DHT22;9648;51.130;13.978;2022-11-02T08:17:59;8.60;99.90
19031;DHT22;9648;51.130;13.978;2022-11-02T08:20:26;8.70;99.90
19031;DHT22;9648;51.130;13.978;2022-11-02T08:22:53;8.80;99.90
19031;DHT22;9648;51.130;13.978;2022-11-02T08:25:20;8.90;99.90
19031;DHT22;9648;51.130;13.978;2022-11-02T08:27:47;9.00;99.90
19031;DHT22;9648;51.130;13.978;2022-11-02T08:30:15;9.10;99.90
19031;DHT22;9648;51.130;13.978;2022-11-02T08:32:42;9.20;99.90
19031;DHT22;9648;51.130;13.978;2022-11-02T08:35:08;9.30;99.90
19031;DHT22;9648;51.130;13.978;2022-11-02T08:37:35;9.40;99.90
19031;DHT22;9648;51.130;13.978;2022-11-02T08:40:02;9.40;99.90
19031;DHT22;9648;51.130;13.978;2022-11-02T08:42:29;9.50;99.90
19031;DHT22;9648;51.130;13.978;2022-11-02T08:44:56;9.60;99.90
19031;DHT22;9648;51.130;13.978;2022-11-02T08:47:24;9.70;99.90
19031;DHT22;9648;51.130;13.978;2022-11-02T08:49:50;9.80;99.90
19031;DHT22;9648;51.130;13.978;2022-11-02T08:52:17;9.80;99.90
19031;DHT22;9648;51.130;13.978;2022-11-02T08:54:44;9.90;99.90
19031;DHT22;9648;51.130;13.978;2022-11-02T08:57:11;10.10;99.90
19031;DHT22;9648;51.130;13.978;2022-11-02T08:59:37;10.20;99.90
19031;DHT22;9648;51.130;13.978;2022-11-02T09:02:04;10.30;99.90
19031;DHT22;9648;51.130;13.978;2022-11-02T09:04:32;10.30;99.90
19031;DHT22;9648;51.130;13.978;2022-11-02T09:06:59;10.40;99.90
19031;DHT22;9648;51.130;13.978;2022-11-02T09:09:26;10.50;99.90
19031;DHT22;9648;51.130;13.978;2022-11-02T09:11:52;10.60;99.90
19031;DHT22;9648;51.130;13.978;2022-11-02T09:14:19;10.70;99.90
19031;DHT22;9648;51.130;13.978;2022-11-02T09:16:46;10.80;99.90
19031;DHT22;9648;51.130;13.978;2022-11-02T09:19:13;11.10;99.90
19031;DHT22;9648;51.130;13.978;2022-11-02T09:21:41;11.40;99.90
19031;DHT22;9648;51.130;13.978;2022-11-02T09:24:08;11.70;99.90
19031;DHT22;9648;51.130;13.978;2022-11-02T09:26:35;11.90;99.90
19031;DHT22;9648;51.130;13.978;2022-11-02T09:29:02;12.10;99.90
19031;DHT22;9648;51.130;13.978;2022-11-02T09:31:29;12.20;99.90
19031;DHT22;9648;51.130;13.978;2022-11-02T09:33:55;12.40;99.90
19031;DHT22;9648;51.130;13.978;2022-11-02T09:36:22;12.50;99.90
19031;DHT22;9648;51.130;13.978;2022-11-02T09:38:50;12.70;99.90
19031;DHT22;9648;51.130;13.978;2022-11-02T09:41:20;12.70;99.90
19031;DHT22;9648;51.130;13.978;2022-11-02T09:43:59;12.70;99.90
19031;DHT22;9648;51.130;13.978;2022-11-02T09:46:30;12.70;99.90
19031;DHT22;9648;51.130;13.978;2022-11-02T09:49:00;12.80;99.90
19031;DHT22;9648;51.130;13.978;2022-11-02T09:51:33;12.90;99.90
19031;DHT22;9648;51.130;13.978;2022-11-02T09:54:06;13.00;99.90
19031;DHT22;9648;51.130;13.978;2022-11-02T09:56:34;13.00;99.90
19031;DHT22;9648;51.130;13.978;2022-11-02T09:59:04;13.00;99.90
19031;DHT22;9648;51.130;13.978;2022-11-02T10:01:38;12.90;99.90
19031;DHT22;9648;51.130;13.978;2022-11-02T10:07:32;12.90;99.90
19031;DHT22;9648;51.130;13.978;2022-11-02T10:10:03;12.90;99.90
19031;DHT22;9648;51.130;13.978;2022-11-02T10:12:39;12.80;99.90
19031;DHT22;9648;51.130;13.978;2022-11-02T10:15:11;12.90;99.90
19031;DHT22;9648;51.130;13.978;2022-11-02T10:17:41;12.90;99.90
19031;DHT22;9648;51.130;13.978;2022-11-02T10:20:23;12.90;99.90
19031;DHT22;9648;51.130;13.978;2022-11-02T10:22:51;12.80;99.90
19031;DHT22;9648;51.130;13.978;2022-11-02T10:25:21;12.80;99.90
19031;DHT22;9648;51.130;13.978;2022-11-02T10:27:52;12.80;99.90
19031;DHT22;9648;51.130;13.978;2022-11-02T10:30:22;12.90;99.90
19031;DHT22;9648;51.130;13.978;2022-11-02T10:32:50;12.90;99.90
19031;DHT22;9648;51.130;13.978;2022-11-02T10:35:24;12.90;99.90
19031;DHT22;9648;51.130;13.978;2022-11-02T10:38:02;12.80;99.90
19031;DHT22;9648;51.130;13.978;2022-11-02T10:40:45;12.70;99.90
19031;DHT22;9648;51.130;13.978;2022-11-02T10:43:27;12.70;99.90
19031;DHT22;9648;51.130;13.978;2022-11-02T10:46:12;12.70;99.90
19031;DHT22;9648;51.130;13.978;2022-11-02T10:48:49;12.80;99.90
19031;DHT22;9648;51.130;13.978;2022-11-02T10:51:17;13.00;99.90
19031;DHT22;9648;51.130;13.978;2022-11-02T10:53:48;13.00;99.90
19031;DHT22;9648;51.130;13.978;2022-11-02T10:56:18;13.10;99.90
19031;DHT22;9648;51.130;13.978;2022-11-02T10:58:54;13.20;99.90
19031;DHT22;9648;51.130;13.978;2022-11-02T11:01:23;13.20;99.90
19031;DHT22;9648;51.130;13.978;2022-11-02T11:03:55;13.30;99.90
19031;DHT22;9648;51.130;13.978;2022-11-02T11:06:24;13.40;99.90
19031;DHT22;9648;51.130;13.978;2022-11-02T11:08:58;13.50;99.90
19031;DHT22;9648;51.130;13.978;2022-11-02T11:11:27;13.70;99.90
19031;DHT22;9648;51.130;13.978;2022-11-02T11:14:01;13.80;99.90
19031;DHT22;9648;51.130;13.978;2022-11-02T11:16:34;13.90;99.90
19031;DHT22;9648;51.130;13.978;2022-11-02T11:19:04;14.00;99.90
19031;DHT22;9648;51.130;13.978;2022-11-02T11:21:35;14.00;99.90
19031;DHT22;9648;51.130;13.978;2022-11-02T11:24:21;14.00;99.90
19031;DHT22;9648;51.130;13.978;2022-11-02T11:27:14;13.90;99.90
19031;DHT22;9648;51.130;13.978;2022-11-02T11:29:46;13.90;99.90
19031;DHT22;9648;51.130;13.978;2022-11-02T11:32:16;13.90;99.90
19031;DHT22;9648;51.130;13.978;2022-11-02T11:34:45;13.90;99.90
19031;DHT22;9648;51.130;13.978;2022-11-02T11:37:15;14.00;99.90
19031;DHT22;9648;51.130;13.978;2022-11-02T11:39:44;14.00;99.90
19031;DHT22;9648;51.130;13.978;2022-11-02T11:42:17;14.00;99.90
19031;DHT22;9648;51.130;13.978;2022-11-02T11:44:46;14.00;99.90
19031;DHT22;9648;51.130;13.978;2022-11-02T11:47:24;13.90;99.90
19031;DHT22;9648;51.130;13.978;2022-11-02T11:49:51;13.80;99.90
19031;DHT22;9648;51.130;13.978;2022-11-02T11:52:21;13.80;99.90
19031;DHT22;9648;51.130;13.978;2022-11-02T11:54:54;13.80;99.90
19031;DHT22;9648;51.130;13.978;2022-11-02T11:57:26;13.70;99.90
19031;DHT22;9648;51.130;13.978;2022-11-02T11:59:54;13.80;99.90
19031;DHT22;9648;51.130;13.978;2022-11-02T12:02:25;13.90;99.90
19031;DHT22;9648;51.130;13.978;2022-11-02T12:05:01;13.80;99.90
19031;DHT22;9648;51.130;13.978;2022-11-02T12:07:46;13.70;99.90
19031;DHT22;9648;51.130;13.978;2022-11-02T12:10:18;13.80;99.90
19031;DHT22;9648;51.130;13.978;2022-11-02T12:13:01;13.90;99.90
19031;DHT22;9648;51.130;13.978;2022-11-02T12:15:45;14.00;99.90
19031;DHT22;9648;51.130;13.978;2022-11-02T12:18:29;14.00;99.90
19031;DHT22;9648;51.130;13.978;2022-11-02T12:21:13;14.10;99.90
19031;DHT22;9648;51.130;13.978;2022-11-02T12:23:56;14.10;99.90
19031;DHT22;9648;51.130;13.978;2022-11-02T12:26:34;14.10;99.90
19031;DHT22;9648;51.130;13.978;2022-11-02T12:29:34;14.10;99.90
19031;DHT22;9648;51.130;13.978;2022-11-02T12:32:10;14.10;99.90
19031;DHT22;9648;51.130;13.978;2022-11-02T12:34:56;14.00;99.90
19031;DHT22;9648;51.130;13.978;2022-11-02T12:37:31;13.90;99.90
19031;DHT22;9648;51.130;13.978;2022-11-02T12:40:16;13.80;99.90
19031;DHT22;9648;51.130;13.978;2022-11-02T12:42:50;13.70;99.90
19031;DHT22;9648;51.130;13.978;2022-11-02T12:45:25;13.60;99.90
19031;DHT22;9648;51.130;13.978;2022-11-02T12:47:59;13.50;99.90
19031;DHT22;9648;51.130;13.978;2022-11-02T12:50:43;13.30;99.90
19031;DHT22;9648;51.130;13.978;2022-11-02T12:53:31;13.30;99.90
19031;DHT22;9648;51.130;13.978;2022-11-02T12:56:00;13.20;99.90
19031;DHT22;9648;51.130;13.978;2022-11-02T12:58:30;13.10;99.90
19031;DHT22;9648;51.130;13.978;2022-11-02T13:01:06;13.10;99.90
19031;DHT22;9648;51.130;13.978;2022-11-02T13:03:38;13.10;99.90
19031;DHT22;9648;51.130;13.978;2022-11-02T13:06:12;13.00;99.90
19031;DHT22;9648;51.130;13.978;2022-11-02T13:08:44;12.90;99.90
19031;DHT22;9648;51.130;13.978;2022-11-02T13:11:15;12.90;99.90
19031;DHT22;9648;51.130;13.978;2022-11-02T13:13:46;13.10;99.90
19031;DHT22;9648;51.130;13.978;2022-11-02T13:16:28;13.10;99.90
19031;DHT22;9648;51.130;13.978;2022-11-02T13:18:57;13.30;99.90
19031;DHT22;9648;51.130;13.978;2022-11-02T13:21:32;13.40;99.90
19031;DHT22;9648;51.130;13.978;2022-11-02T13:23:59;13.40;99.90
19031;DHT22;9648;51.130;13.978;2022-11-02T13:26:27;13.50;99.90
19031;DHT22;9648;51.130;13.978;2022-11-02T13:28:59;13.50;99.90
19031;DHT22;9648;51.130;13.978;2022-11-02T13:31:33;13.50;99.90
19031;DHT22;9648;51.130;13.978;2022-11-02T13:34:04;13.60;99.90
19031;DHT22;9648;51.130;13.978;2022-11-02T13:36:35;13.60;99.90
19031;DHT22;9648;51.130;13.978;2022-11-02T13:39:06;13.70;99.90
19031;DHT22;9648;51.130;13.978;2022-11-02T13:41:50;13.60;99.90
19031;DHT22;9648;51.130;13.978;2022-11-02T13:45:00;13.60;99.90
19031;DHT22;9648;51.130;13.978;2022-11-02T13:50:43;13.70;99.90
19031;DHT22;9648;51.130;13.978;2022-11-02T13:53:17;13.60;99.90
19031;DHT22;9648;51.130;13.978;2022-11-02T13:55:49;13.60;99.90
19031;DHT22;9648;51.130;13.978;2022-11-02T13:58:22;13.60;99.90
19031;DHT22;9648;51.130;13.978;2022-11-02T14:00:51;13.50;99.90
19031;DHT22;9648;51.130;13.978;2022-11-02T14:03:22;13.50;99.90
19031;DHT22;9648;51.130;13.978;2022-11-02T14:05:54;13.50;99.90
19031;DHT22;9648;51.130;13.978;2022-11-02T14:08:29;13.50;99.90
19031;DHT22;9648;51.130;13.978;2022-11-02T14:11:22;13.50;99.90
19031;DHT22;9648;51.130;13.978;2022-11-02T14:14:14;13.50;99.90
19031;DHT22;9648;51.130;13.978;2022-11-02T14:16:43;13.50;99.90
19031;DHT22;9648;51.130;13.978;2022-11-02T14:19:22;13.50;99.90
19031;DHT22;9648;51.130;13.978;2022-11-02T14:22:10;13.50;99.90
19031;DHT22;9648;51.130;13.978;2022-11-02T14:27:44;13.40;99.90
19031;DHT22;9648;51.130;13.978;2022-11-02T14:33:20;13.20;99.90
19031;DHT22;9648;51.130;13.978;2022-11-02T14:35:56;13.10;99.90
19031;DHT22;9648;51.130;13.978;2022-11-02T14:38:38;13.00;99.90
19031;DHT22;9648;51.130;13.978;2022-11-02T14:41:25;12.90;99.90
19031;DHT22;9648;51.130;13.978;2022-11-02T14:44:03;12.80;99.90
19031;DHT22;9648;51.130;13.978;2022-11-02T14:46:48;12.70;99.90
19031;DHT22;9648;51.130;13.978;2022-11-02T14:49:23;12.50;99.90
19031;DHT22;9648;51.130;13.978;2022-11-02T14:52:01;12.40;99.90
19031;DHT22;9648;51.130;13.978;2022-11-02T14:54:31;12.40;99.90
19031;DHT22;9648;51.130;13.978;2022-11-02T14:57:02;12.30;99.90
19031;DHT22;9648;51.130;13.978;2022-11-02T14:59:32;12.20;99.90
19031;DHT22;9648;51.130;13.978;2022-11-02T15:02:03;12.20;99.90
19031;DHT22;9648;51.130;13.978;2022-11-02T15:04:32;12.20;99.90
19031;DHT22;9648;51.130;13.978;2022-11-02T15:07:02;12.10;99.90
19031;DHT22;9648;51.130;13.978;2022-11-02T15:09:52;12.10;99.90
19031;DHT22;9648;51.130;13.978;2022-11-02T15:12:36;12.10;99.90
19031;DHT22;9648;51.130;13.978;2022-11-02T15:15:30;12.00;99.90
19031;DHT22;9648;51.130;13.978;2022-11-02T15:18:21;12.00;99.90
19031;DHT22;9648;51.130;13.978;2022-11-02T15:21:23;11.90;99.90
19031;DHT22;9648;51.130;13.978;2022-11-02T15:24:01;11.90;99.90
19031;DHT22;9648;51.130;13.978;2022-11-02T15:26:34;11.80;99.90
19031;DHT22;9648;51.130;13.978;2022-11-02T15:29:04;11.70;99.90
19031;DHT22;9648;51.130;13.978;2022-11-02T15:31:33;11.60;99.90
19031;DHT22;9648;51.130;13.978;2022-11-02T15:34:02;11.60;99.90
19031;DHT22;9648;51.130;13.978;2022-11-02T15:36:32;11.40;99.90
19031;DHT22;9648;51.130;13.978;2022-11-02T15:39:04;11.30;99.90
19031;DHT22;9648;51.130;13.978;2022-11-02T15:41:38;11.20;99.90
19031;DHT22;9648;51.130;13.978;2022-11-02T15:44:25;11.10;99.90
19031;DHT22;9648;51.130;13.978;2022-11-02T15:47:05;10.90;99.90
19031;DHT22;9648;51.130;13.978;2022-11-02T15:52:55;10.70;99.90
19031;DHT22;9648;51.130;13.978;2022-11-02T15:55:34;10.50;99.90
19031;DHT22;9648;51.130;13.978;2022-11-02T15:58:11;10.40;99.90
19031;DHT22;9648;51.130;13.978;2022-11-02T16:00:39;10.30;99.90
19031;DHT22;9648;51.130;13.978;2022-11-02T16:03:08;10.20;99.90
19031;DHT22;9648;51.130;13.978;2022-11-02T16:05:42;10.10;99.90
19031;DHT22;9648;51.130;13.978;2022-11-02T16:08:20;10.00;99.90
19031;DHT22;9648;51.130;13.978;2022-11-02T16:10:49;9.90;99.90
19031;DHT22;9648;51.130;13.978;2022-11-02T16:13:19;9.90;99.90
19031;DHT22;9648;51.130;13.978;2022-11-02T16:15:47;9.80;99.90
19031;DHT22;9648;51.130;13.978;2022-11-02T16:18:24;9.70;99.90
19031;DHT22;9648;51.130;13.978;2022-11-02T16:20:53;9.70;99.90
19031;DHT22;9648;51.130;13.978;2022-11-02T16:23:23;9.60;99.90